LIRF/FCO METAR and TAF weather

Enter ICAO airport designator
Station Type Date Time Source
LIRF METAR 2019/12/06 23:50 UTC NOAA

LIRF 062350Z 08004KT 8000 FEW018 SCT035 11/10 Q1021 NOSIG


Station Type Date Time Source
LIRF Decoded METAR 2019/12/06 23:50 UTC NOAA

Roma Fiumicino, Italy (LIRF) 41-48N 012-14E 3M
Dec 06, 2019 - 06:50 PM EST / 2019.12.06 2350 UTC
Wind: from the E (080 degrees) at 5 MPH (4 KT):0
Visibility: 4 mile(s):0
Sky conditions: partly cloudy
Temperature: 51 F (11 C)
Dew Point: 50 F (10 C)
Relative Humidity: 93%
Pressure (altimeter): 30.15 in. Hg (1021 hPa)
ob: LIRF 062350Z 08004KT 8000 FEW018 SCT035 11/10 Q1021 NOSIG
cycle: 0

Station Type Date Time Source
LIRF TAF 2019/12/06 18:24 UTC NOAA

TAF LIRF 061700Z 0618/0724 12010KT 9999 SCT040
TEMPO 0618/0706 4000 SHRA
BECMG 0709/0711 23012KT
TEMPO 0710/0714 SHRA

Example: see airport list